EIDWEIME

Guest
Details From EIDW - Dublin
To EIME - Baldonnel Casement
Flight Number -
Tags generated
Created
Modified
Stats Distance 18 nm / 33 km
Max Altitude 1,600 ft / 488 m
Waypoints 3
Social Downloads 0
Likes 0
Share VATSIM

Download

Looking for another format? Having issues loading an existing format? Contact us
Advertisement - Login to hide

Notes

Basic altitude profile: - Ascent Rate: 2500ft/min - Ascent Speed: 250kts - Cruise Altitude: 2800ft - Cruise Speed: 420kts - Descent Rate: 1500ft/min - Descent Speed: 250kts

Route

EIDW DUB EIME

ID Type Via Altitude Latitude Longitude Leg Dist Tot Dist Heading (true) Name
O EIDW APT - 0 ft / 0 m 53.42826˚ -6.25955˚ - 0 nm - Dublin
DUB VOR - 1,600 ft / 488 m 53.49938˚ -6.30711˚ 4 nm 4 nm 338° / 338° DUBLIN VOR-DME
O EIME APT - 0 ft / 0 m 53.30077˚ -6.45102˚ 12 nm 17 nm 203° / 203° Baldonnel Casement

Altitude Profile

Advertisement - Login to hide

EIDW

Details ICAO EIDW (DUB)
Name Dublin
Region Ireland
Timezone Europe/Dublin (UTC+0.0)
Stats Elevation 242 ft / 74 m (AMSL)
Location 53.428264° -6.259550°
Runways 3
Magnetic Variation 3.024° W

METAR

EIDW 130730Z 23020KT 9999 -RA FEW010 SCT020 BKN040 06/05 Q0993 NOSIG

Decode

TAF

Not found

Departure Runways

ID Width Length Bearing (true) Bearing (mag) Surface Threshold Offset Overrun Length
10 148 ft / 45 m 8,625 ft / 2,629 m 95.25° 98.27° Concrete 0 ft / 0 m 0 ft / 0 m
11 200 ft / 61 m 4,380 ft / 1,335 m 105.01° 108.03° Asphalt 279 ft / 85 m 0 ft / 0 m
16 200 ft / 61 m 6,791 ft / 2,070 m 156.64° 159.66° Asphalt 0 ft / 0 m 0 ft / 0 m
28 148 ft / 45 m 8,625 ft / 2,629 m 275.28° 278.30° Concrete 0 ft / 0 m 0 ft / 0 m
29 200 ft / 61 m 4,380 ft / 1,335 m 285.02° 288.04° Asphalt 0 ft / 0 m 0 ft / 0 m
34 200 ft / 61 m 6,791 ft / 2,070 m 336.65° 339.67° Asphalt 0 ft / 0 m 0 ft / 0 m

EIME

Details ICAO EIME
Name Baldonnel Casement
Region Ireland
Timezone Europe/Dublin (UTC+0.0)
Stats Elevation 319 ft / 97 m (AMSL)
Location 53.300768° -6.451018°
Runways 2
Magnetic Variation 3.076° W

METAR

EIME 130700Z 22020KT 9999 -RA FEW013 BKN022 BKN030 06/05 Q0994

Decode

TAF

Not found

Destination Runways

ID Width Length Bearing (true) Bearing (mag) Surface Threshold Offset Overrun Length
05 151 ft / 46 m 4,789 ft / 1,460 m 40.85° 43.93° Asphalt 0 ft / 0 m 0 ft / 0 m
11 151 ft / 46 m 5,979 ft / 1,823 m 101.95° 105.03° Asphalt 0 ft / 0 m 0 ft / 0 m
23 151 ft / 46 m 4,789 ft / 1,460 m 220.86° 223.94° Asphalt 0 ft / 0 m 0 ft / 0 m
29 151 ft / 46 m 5,979 ft / 1,823 m 281.97° 285.05° Asphalt 600 ft / 183 m 0 ft / 0 m

Approach Navaids

Runway Type Ident Frequency Range Bearing (true) Bearing (mag) Slope Elevation
11 Localiser IB 109.35 MHz 18 nm / 33 km 102.00° 105.08° - 319 ft / 97 m (AMSL)
11 Glidescope IB 109.35 MHz 10 nm / 19 km 102.00° 105.08° 3.00° 319 ft / 97 m (AMSL)
11 DME IB 109.35 MHz 18 nm / 33 km - - - 319 ft / 97 m (AMSL)

Popular Alternatives